createdAt,value
2023-05-16T00:03:08.214Z,11.65
2023-05-16T00:08:14.719Z,11.64
2023-05-16T00:13:25.948Z,11.65
2023-05-16T00:18:32.453Z,11.63
2023-05-16T00:23:39.071Z,11.61
2023-05-16T00:28:47.321Z,11.63
2023-05-16T00:33:53.784Z,11.62
2023-05-16T00:39:03.457Z,11.59
2023-05-16T00:44:11.936Z,11.61
2023-05-16T00:49:18.977Z,11.58
2023-05-16T00:54:29.633Z,11.56
2023-05-16T00:59:37.972Z,11.57
2023-05-16T01:04:46.294Z,11.55
2023-05-16T01:09:53.321Z,11.57
2023-05-16T01:15:10.229Z,11.55
2023-05-16T01:20:30.534Z,11.53
2023-05-16T01:25:58.743Z,11.54
2023-05-16T01:31:07.485Z,11.53
2023-05-16T01:36:28.124Z,11.49
2023-05-16T01:41:45.270Z,11.54
2023-05-16T01:46:59.962Z,11.55
2023-05-16T01:52:15.264Z,11.54
2023-05-16T01:57:23.813Z,11.48
2023-05-16T02:02:32.769Z,11.42
2023-05-16T02:07:43.278Z,11.38
2023-05-16T02:12:49.654Z,11.30
2023-05-16T02:17:58.987Z,11.23
2023-05-16T02:23:05.397Z,11.18
2023-05-16T02:28:11.878Z,11.11
2023-05-16T02:33:19.574Z,11.03
2023-05-16T02:38:26.037Z,10.93
2023-05-16T02:43:32.459Z,10.82
2023-05-16T02:48:40.408Z,10.74
2023-05-16T02:53:47.234Z,10.69
2023-05-16T02:58:55.150Z,10.62
2023-05-16T03:04:03.058Z,10.63
2023-05-16T03:09:09.954Z,10.61
2023-05-16T03:14:16.884Z,10.65
2023-05-16T03:19:27.443Z,10.71
2023-05-16T03:24:35.530Z,10.72
2023-05-16T03:29:42.493Z,10.73
2023-05-16T03:34:50.440Z,10.70
2023-05-16T03:39:57.175Z,10.61
2023-05-16T03:45:04.014Z,10.67
2023-05-16T03:50:12.958Z,10.75
2023-05-16T03:55:19.645Z,10.79
2023-05-16T04:00:27.397Z,10.85
2023-05-16T04:05:35.288Z,10.89
2023-05-16T04:10:42.001Z,10.94
2023-05-16T04:15:48.570Z,10.97
2023-05-16T04:20:56.693Z,11.08
2023-05-16T04:26:04.973Z,11.15
2023-05-16T04:31:11.621Z,11.17
2023-05-16T04:36:19.500Z,11.21
2023-05-16T04:41:25.865Z,11.26
2023-05-16T04:46:32.547Z,11.34
2023-05-16T04:51:40.869Z,11.33
2023-05-16T04:56:47.700Z,11.37
2023-05-16T05:01:55.005Z,11.39
2023-05-16T05:07:02.807Z,11.37
2023-05-16T05:12:12.019Z,11.41
2023-05-16T05:17:19.110Z,11.44
2023-05-16T05:22:27.362Z,11.44
2023-05-16T05:27:33.887Z,11.43
2023-05-16T05:32:40.634Z,11.44
2023-05-16T05:37:49.374Z,11.46
2023-05-16T05:42:56.528Z,11.55
2023-05-16T05:48:03.728Z,11.62
2023-05-16T05:53:12.260Z,11.63
2023-05-16T05:58:19.185Z,11.62
2023-05-16T06:03:26.058Z,11.60
2023-05-16T06:08:34.552Z,11.62
2023-05-16T06:13:40.970Z,11.62
2023-05-16T06:18:49.194Z,11.60
2023-05-16T06:23:57.464Z,11.68
2023-05-16T06:29:06.262Z,11.72
2023-05-16T06:34:12.955Z,11.78
2023-05-16T06:39:21.199Z,11.87
2023-05-16T06:44:28.079Z,11.92
2023-05-16T06:49:35.415Z,12.03
2023-05-16T06:54:43.681Z,12.23
2023-05-16T06:59:50.291Z,12.42
2023-05-16T07:04:56.937Z,12.51
2023-05-16T07:10:05.018Z,12.51
2023-05-16T07:15:13.940Z,12.44
2023-05-16T07:20:20.734Z,12.36
2023-05-16T07:25:29.336Z,12.40
2023-05-16T07:30:36.428Z,12.45
2023-05-16T07:35:43.366Z,12.58
2023-05-16T07:40:51.381Z,12.68
2023-05-16T07:45:58.153Z,12.85
2023-05-16T07:51:05.011Z,12.98
2023-05-16T07:56:13.308Z,13.15
2023-05-16T08:01:20.659Z,13.23
2023-05-16T08:06:30.138Z,13.32
2023-05-16T08:11:40.402Z,13.32
2023-05-16T08:16:47.274Z,13.36
2023-05-16T08:21:54.754Z,13.44
2023-05-16T08:27:02.794Z,13.51
2023-05-16T08:32:11.882Z,13.51
2023-05-16T08:37:18.692Z,13.54
2023-05-16T08:42:27.870Z,13.70
2023-05-16T08:47:36.990Z,13.89
2023-05-16T08:52:47.152Z,14.05
2023-05-16T08:57:58.207Z,14.18
2023-05-16T09:03:05.577Z,14.13
2023-05-16T09:08:12.312Z,14.13
2023-05-16T09:13:20.274Z,14.39
2023-05-16T09:18:28.826Z,14.51
2023-05-16T09:23:37.369Z,14.48
2023-05-16T09:28:45.815Z,14.61
2023-05-16T09:33:52.574Z,14.79
2023-05-16T09:38:59.547Z,14.89
2023-05-16T09:44:09.096Z,15.03
2023-05-16T09:49:17.313Z,15.08
2023-05-16T09:54:34.436Z,15.14
2023-05-16T09:59:43.733Z,15.00
2023-05-16T10:04:50.552Z,14.88
2023-05-16T10:09:58.818Z,14.76
2023-05-16T10:15:09.035Z,14.79
2023-05-16T10:20:17.001Z,14.87
2023-05-16T10:25:31.262Z,15.06
2023-05-16T10:30:42.346Z,15.24
2023-05-16T10:35:49.852Z,15.25
2023-05-16T10:40:57.626Z,15.29
2023-05-16T10:46:10.728Z,15.39
2023-05-16T10:51:39.418Z,15.65
2023-05-16T10:56:46.389Z,15.78
2023-05-16T11:01:58.091Z,15.93
2023-05-16T11:07:09.127Z,15.99
2023-05-16T11:12:16.602Z,16.02
2023-05-16T11:17:28.063Z,16.08
2023-05-16T11:22:41.630Z,15.95
2023-05-16T11:27:50.039Z,15.83
2023-05-16T11:32:58.739Z,15.79
2023-05-16T11:38:05.680Z,15.76
2023-05-16T11:43:14.014Z,15.84
2023-05-16T11:48:35.370Z,15.97
2023-05-16T11:53:43.451Z,16.09
2023-05-16T11:58:50.992Z,16.25
2023-05-16T12:04:00.192Z,16.30
2023-05-16T12:09:11.018Z,16.38
2023-05-16T12:14:19.443Z,16.43
2023-05-16T12:19:27.841Z,16.39
2023-05-16T12:24:35.034Z,16.46
2023-05-16T12:29:42.270Z,16.75
2023-05-16T12:34:56.406Z,16.75
2023-05-16T12:40:04.699Z,16.64
2023-05-16T12:45:18.675Z,16.60
2023-05-16T12:50:29.759Z,16.70
2023-05-16T12:55:39.807Z,16.81
2023-05-16T13:00:46.470Z,16.90
2023-05-16T13:05:54.780Z,16.95
2023-05-16T13:11:01.560Z,16.95
2023-05-16T13:16:10.918Z,16.95
2023-05-16T13:21:19.392Z,16.95
2023-05-16T13:26:27.149Z,17.01
2023-05-16T13:31:33.951Z,17.04
2023-05-16T13:36:53.995Z,17.07
2023-05-16T13:42:03.518Z,17.12
2023-05-16T13:47:10.359Z,17.16
2023-05-16T13:52:18.988Z,17.23
2023-05-16T13:57:27.871Z,17.26
2023-05-16T14:02:34.466Z,17.20
2023-05-16T14:07:46.674Z,17.22
2023-05-16T14:12:53.779Z,17.16
2023-05-16T14:18:00.538Z,17.22
2023-05-16T14:23:09.086Z,17.27
2023-05-16T14:28:20.830Z,17.23
2023-05-16T14:33:27.801Z,17.30
2023-05-16T14:38:36.178Z,17.23
2023-05-16T14:43:42.744Z,17.26
2023-05-16T14:48:49.342Z,17.23
2023-05-16T14:53:58.097Z,17.34
2023-05-16T14:59:05.024Z,17.38
2023-05-16T15:04:11.579Z,17.35
2023-05-16T15:09:19.638Z,17.40
2023-05-16T15:14:27.467Z,17.35
2023-05-16T15:19:34.291Z,17.40
2023-05-16T15:24:42.782Z,17.46
2023-05-16T15:29:49.590Z,17.48
2023-05-16T15:34:56.805Z,17.53
2023-05-16T15:40:06.408Z,17.55
2023-05-16T15:45:14.406Z,17.59
2023-05-16T15:50:21.603Z,17.51
2023-05-16T15:55:30.850Z,17.46
2023-05-16T16:00:37.652Z,17.49
2023-05-16T16:05:44.341Z,17.30
2023-05-16T16:10:52.681Z,17.27
2023-05-16T16:15:59.572Z,17.26
2023-05-16T16:21:07.778Z,17.27
2023-05-16T16:26:16.468Z,17.16
2023-05-16T16:31:23.109Z,17.14
2023-05-16T16:36:30.072Z,17.08
2023-05-16T16:41:39.912Z,17.04
2023-05-16T16:46:46.884Z,17.02
2023-05-16T16:51:53.820Z,16.97
2023-05-16T16:57:02.680Z,16.96
2023-05-16T17:02:09.825Z,16.93
2023-05-16T17:07:16.654Z,16.92
2023-05-16T17:12:29.171Z,16.88
2023-05-16T17:17:36.340Z,16.83
2023-05-16T17:22:48.699Z,16.79
2023-05-16T17:27:59.613Z,16.72
2023-05-16T17:33:10.361Z,16.64
2023-05-16T17:38:21.196Z,16.58
2023-05-16T17:43:31.498Z,16.50
2023-05-16T17:48:39.322Z,16.41
2023-05-16T17:53:49.882Z,16.33
2023-05-16T17:58:58.570Z,16.22
2023-05-16T18:04:07.330Z,16.13
2023-05-16T18:09:15.441Z,16.01
2023-05-16T18:14:24.053Z,15.91
2023-05-16T18:19:31.116Z,15.80
2023-05-16T18:24:38.393Z,15.69
2023-05-16T18:29:47.218Z,15.62
2023-05-16T18:34:54.029Z,15.52
2023-05-16T18:40:02.181Z,15.42
2023-05-16T18:45:14.180Z,15.32
2023-05-16T18:50:24.660Z,15.22
2023-05-16T18:55:32.080Z,15.15
2023-05-16T19:00:42.714Z,15.11
2023-05-16T19:05:50.059Z,15.00
2023-05-16T19:10:59.956Z,14.96
2023-05-16T19:16:10.649Z,14.89
2023-05-16T19:21:18.482Z,14.85
2023-05-16T19:26:29.652Z,14.79
2023-05-16T19:31:39.639Z,14.74
2023-05-16T19:36:46.950Z,14.69
2023-05-16T19:42:06.235Z,14.62
2023-05-16T19:47:16.447Z,14.54
2023-05-16T19:52:25.569Z,14.48
2023-05-16T19:57:32.414Z,14.43
2023-05-16T20:02:41.021Z,14.38
2023-05-16T20:07:47.969Z,14.28
2023-05-16T20:12:54.970Z,14.27
2023-05-16T20:18:06.909Z,14.26
2023-05-16T20:23:14.009Z,14.23
2023-05-16T20:28:21.341Z,14.20
2023-05-16T20:33:30.062Z,14.15
2023-05-16T20:38:38.726Z,14.09
2023-05-16T20:43:47.082Z,14.04
2023-05-16T20:48:55.288Z,14.00
2023-05-16T20:54:02.219Z,13.95
2023-05-16T20:59:09.980Z,13.95
2023-05-16T21:04:18.210Z,13.91
2023-05-16T21:09:25.068Z,13.88
2023-05-16T21:14:31.994Z,13.86
2023-05-16T21:19:42.586Z,13.85
2023-05-16T21:24:49.353Z,13.84
2023-05-16T21:29:55.765Z,13.82
2023-05-16T21:35:07.221Z,13.78
2023-05-16T21:40:19.502Z,13.75
2023-05-16T21:45:27.611Z,13.72
2023-05-16T21:50:36.498Z,13.64
2023-05-16T21:55:44.117Z,13.61
2023-05-16T22:00:52.573Z,13.44
2023-05-16T22:06:01.551Z,13.43
2023-05-16T22:11:09.062Z,13.43
2023-05-16T22:16:17.589Z,13.38
2023-05-16T22:21:25.926Z,13.36
2023-05-16T22:26:32.887Z,13.34
2023-05-16T22:31:39.500Z,13.34
2023-05-16T22:36:48.788Z,13.34
2023-05-16T22:41:55.763Z,13.32
2023-05-16T22:47:02.459Z,13.33
2023-05-16T22:52:10.972Z,13.34
2023-05-16T22:57:17.864Z,13.34
2023-05-16T23:02:27.011Z,13.35
2023-05-16T23:07:34.681Z,13.35
2023-05-16T23:12:41.167Z,13.30
2023-05-16T23:17:47.877Z,13.23
2023-05-16T23:22:56.915Z,13.18
2023-05-16T23:28:03.299Z,13.10
2023-05-16T23:33:09.928Z,13.09
2023-05-16T23:38:18.083Z,13.08
2023-05-16T23:43:25.689Z,12.97
2023-05-16T23:48:36.553Z,13.01
2023-05-16T23:53:44.998Z,13.00
2023-05-16T23:58:51.736Z,12.96
